Time;durP1;ratioP1;P1;durP2;ratioP2;P2;SDS_P1;SDS_P2;PMS_P1;PMS_P2;Temp;Humidity;BMP_temperature;BMP_pressure;BME280_temperature;BME280_humidity;BME280_pressure;Samples;Min_cycle;Max_cycle;Signal;HPM_P1;HPM_P2
2022/09/10 00:00:21;;;;;;;5.55;2.70;;;;;;;;;;5048140;28;20117;-80
2022/09/10 00:03:02;;;;;;;4.75;2.33;;;;;;;;;;5048654;28;20414;-79
2022/09/10 00:05:29;;;;;;;6.75;2.60;;;;;;;;;;5047947;28;20455;-79
2022/09/10 00:07:58;;;;;;;5.32;2.67;;;;;;;;;;5026866;28;20104;-79
2022/09/10 00:10:25;;;;;;;7.78;2.63;;;;;;;;;;5049803;28;20095;-79
2022/09/10 00:12:54;;;;;;;9.32;3.58;;;;;;;;;;5048142;28;20052;-79
2022/09/10 00:15:21;;;;;;;9.38;2.92;;;;;;;;;;5048705;28;20442;-80
2022/09/10 00:18:40;;;;;;;5.70;2.60;;;;;;;;;;5046728;28;20056;-80
2022/09/10 00:21:11;;;;;;;8.68;2.83;;;;;;;;;;5045371;28;20037;-79
2022/09/10 00:23:39;;;;;;;4.05;2.45;;;;;;;;;;5011545;28;20094;-79
2022/09/10 00:26:13;;;;;;;8.52;2.83;;;;;;;;;;5045690;28;20076;-79
2022/09/10 00:28:45;;;;;;;6.28;2.70;;;;;;;;;;5027757;28;20049;-79
2022/09/10 00:31:37;;;;;;;5.90;2.30;;;;;;;;;;5047714;28;20383;-79
2022/09/10 00:34:35;;;;;;;7.70;2.80;;;;;;;;;;5046510;28;20075;-80
2022/09/10 00:37:03;;;;;;;5.55;2.60;;;;;;;;;;5046114;28;20056;-79
2022/09/10 00:39:31;;;;;;;8.48;2.50;;;;;;;;;;5046003;28;20048;-79
2022/09/10 00:41:59;;;;;;;5.28;2.47;;;;;;;;;;5025388;28;20053;-80
2022/09/10 00:44:36;;;;;;;4.72;2.17;;;;;;;;;;5047347;28;20056;-80
2022/09/10 00:47:23;;;;;;;9.90;2.97;;;;;;;;;;5045856;28;20077;-79
2022/09/10 00:50:22;;;;;;;11.88;3.22;;;;;;;;;;5028830;28;20127;-80
2022/09/10 00:53:20;;;;;;;7.07;3.00;;;;;;;;;;5041372;28;20048;-80
2022/09/10 00:55:52;;;;;;;5.82;3.20;;;;;;;;;;5045816;28;20055;-80
2022/09/10 00:58:23;;;;;;;13.43;3.13;;;;;;;;;;5024031;28;20049;-79
2022/09/10 01:00:55;;;;;;;7.30;3.40;;;;;;;;;;5028421;28;20044;-80
2022/09/10 01:03:23;;;;;;;5.38;2.88;;;;;;;;;;5043876;28;20540;-79
2022/09/10 01:05:56;;;;;;;5.22;2.88;;;;;;;;;;5029317;28;20072;-80
2022/09/10 01:08:30;;;;;;;4.55;2.75;;;;;;;;;;5046852;28;20071;-79
2022/09/10 01:11:36;;;;;;;4.25;2.63;;;;;;;;;;5041559;28;20071;-80
2022/09/10 01:14:31;;;;;;;4.68;3.38;;;;;;;;;;5029551;28;20049;-80
2022/09/10 01:17:14;;;;;;;4.38;2.78;;;;;;;;;;5046439;28;20045;-80
2022/09/10 01:20:26;;;;;;;5.43;2.80;;;;;;;;;;5011491;28;21055;-80
2022/09/10 01:23:40;;;;;;;6.78;2.80;;;;;;;;;;5029724;28;20045;-80
2022/09/10 01:26:17;;;;;;;5.75;2.45;;;;;;;;;;5025701;28;20437;-80
2022/09/10 01:28:55;;;;;;;6.18;3.25;;;;;;;;;;5047304;28;20055;-79
2022/09/10 01:31:36;;;;;;;4.50;2.53;;;;;;;;;;5029777;28;20490;-80
2022/09/10 01:34:40;;;;;;;6.47;2.95;;;;;;;;;;5031010;28;20048;-80
2022/09/10 01:37:21;;;;;;;8.55;2.85;;;;;;;;;;5035293;28;20130;-79
2022/09/10 01:39:55;;;;;;;5.82;2.88;;;;;;;;;;5026576;28;20053;-80
2022/09/10 01:42:27;;;;;;;7.03;2.72;;;;;;;;;;5011426;28;20420;-80
2022/09/10 01:44:56;;;;;;;10.20;3.03;;;;;;;;;;5009522;28;20095;-79
2022/09/10 01:47:50;;;;;;;4.60;2.58;;;;;;;;;;5029904;28;20047;-80
2022/09/10 01:51:18;;;;;;;10.75;3.03;;;;;;;;;;5027028;28;20037;-79
2022/09/10 01:53:56;;;;;;;7.68;2.60;;;;;;;;;;5042259;28;20140;-80
2022/09/10 01:56:26;;;;;;;3.92;2.88;;;;;;;;;;5025683;28;20536;-80
2022/09/10 01:59:02;;;;;;;6.40;2.90;;;;;;;;;;5012126;28;20049;-80
2022/09/10 02:01:51;;;;;;;6.03;2.70;;;;;;;;;;5025689;28;20037;-80
2022/09/10 02:04:21;;;;;;;4.80;2.78;;;;;;;;;;5043829;28;20140;-79
2022/09/10 02:06:50;;;;;;;3.88;2.35;;;;;;;;;;5041727;28;20037;-80
2022/09/10 02:09:18;;;;;;;6.47;2.92;;;;;;;;;;5025560;28;20061;-80
2022/09/10 02:11:53;;;;;;;4.60;2.70;;;;;;;;;;5042567;28;20044;-80
2022/09/10 02:14:39;;;;;;;6.07;2.75;;;;;;;;;;5044866;28;20043;-80
2022/09/10 02:17:19;;;;;;;8.35;2.75;;;;;;;;;;5029064;28;20081;-79
2022/09/10 02:19:52;;;;;;;4.13;2.50;;;;;;;;;;5041428;28;20049;-79
2022/09/10 02:22:22;;;;;;;5.75;2.72;;;;;;;;;;5024857;28;20157;-79
2022/09/10 02:24:51;;;;;;;4.55;2.80;;;;;;;;;;5045943;28;20112;-80
2022/09/10 02:27:19;;;;;;;7.00;3.13;;;;;;;;;;5019408;28;20135;-80
2022/09/10 02:29:48;;;;;;;4.03;2.80;;;;;;;;;;5024095;28;20083;-79
2022/09/10 02:32:16;;;;;;;4.15;2.65;;;;;;;;;;5026652;28;20067;-80
2022/09/10 02:34:43;;;;;;;6.00;2.70;;;;;;;;;;5025557;28;20049;-79
2022/09/10 02:37:11;;;;;;;6.80;2.92;;;;;;;;;;5009566;28;20057;-80
2022/09/10 02:39:44;;;;;;;5.22;3.15;;;;;;;;;;5007218;28;20497;-80
2022/09/10 02:42:15;;;;;;;5.40;2.97;;;;;;;;;;5044719;28;20045;-80
2022/09/10 02:44:50;;;;;;;6.68;3.20;;;;;;;;;;5025530;28;20060;-79
2022/09/10 02:47:21;;;;;;;4.85;3.13;;;;;;;;;;5025212;28;20055;-80
2022/09/10 02:49:49;;;;;;;5.55;3.33;;;;;;;;;;5008501;28;20506;-80
2022/09/10 02:52:44;;;;;;;5.07;3.03;;;;;;;;;;5039272;28;20049;-80
2022/09/10 02:55:12;;;;;;;6.90;3.25;;;;;;;;;;5027346;28;20041;-80
2022/09/10 02:57:42;;;;;;;6.15;3.20;;;;;;;;;;5023430;28;20055;-80
2022/09/10 03:00:11;;;;;;;6.53;3.50;;;;;;;;;;5025990;28;20817;-80
2022/09/10 03:02:39;;;;;;;7.53;2.97;;;;;;;;;;5026088;28;20045;-80
2022/09/10 03:05:11;;;;;;;8.32;3.20;;;;;;;;;;5043823;28;20064;-80
2022/09/10 03:08:06;;;;;;;9.05;3.35;;;;;;;;;;5044234;28;20083;-80
2022/09/10 03:10:44;;;;;;;5.45;3.40;;;;;;;;;;5010372;28;20057;-79
2022/09/10 03:13:11;;;;;;;5.22;3.00;;;;;;;;;;5027552;28;20485;-79
2022/09/10 03:15:41;;;;;;;6.55;3.15;;;;;;;;;;5040944;28;20063;-79
2022/09/10 03:18:09;;;;;;;4.55;3.10;;;;;;;;;;5029927;28;20535;-80
2022/09/10 03:20:42;;;;;;;6.53;2.92;;;;;;;;;;5030633;28;20073;-80
2022/09/10 03:23:10;;;;;;;5.45;2.92;;;;;;;;;;5047839;28;20048;-79
2022/09/10 03:25:37;;;;;;;6.28;2.85;;;;;;;;;;5030514;28;20434;-80
2022/09/10 03:28:05;;;;;;;5.03;2.90;;;;;;;;;;5047538;28;20049;-80
2022/09/10 03:30:34;;;;;;;4.70;3.10;;;;;;;;;;5027618;28;20059;-79
2022/09/10 03:33:03;;;;;;;6.95;3.15;;;;;;;;;;5028457;28;20052;-80
2022/09/10 03:35:35;;;;;;;5.05;3.00;;;;;;;;;;5013686;28;20041;-80
2022/09/10 03:38:27;;;;;;;4.50;3.10;;;;;;;;;;5048306;28;20053;-81
2022/09/10 03:41:19;;;;;;;5.20;2.97;;;;;;;;;;5030882;28;20087;-80
2022/09/10 03:43:53;;;;;;;8.95;3.40;;;;;;;;;;5044803;28;20076;-80
2022/09/10 03:46:21;;;;;;;4.90;2.80;;;;;;;;;;5029236;28;20096;-80
2022/09/10 03:49:16;;;;;;;5.30;2.70;;;;;;;;;;5030817;28;20044;-80
2022/09/10 03:51:43;;;;;;;5.72;2.95;;;;;;;;;;5032485;28;20131;-80
2022/09/10 03:54:13;;;;;;;4.47;2.75;;;;;;;;;;5032163;28;20053;-80
2022/09/10 03:56:43;;;;;;;4.68;2.78;;;;;;;;;;5029014;28;20052;-80
2022/09/10 03:59:14;;;;;;;5.78;3.10;;;;;;;;;;5026047;28;20140;-80
2022/09/10 04:01:41;;;;;;;5.28;2.97;;;;;;;;;;5027617;28;20057;-81
2022/09/10 04:04:13;;;;;;;4.45;2.90;;;;;;;;;;5044024;28;20041;-80
2022/09/10 04:06:47;;;;;;;5.45;2.65;;;;;;;;;;5027859;28;20167;-81
2022/09/10 04:09:15;;;;;;;6.00;3.00;;;;;;;;;;5037411;28;20510;-81
2022/09/10 04:12:07;;;;;;;5.32;2.88;;;;;;;;;;5047615;28;20045;-80
2022/09/10 04:15:00;;;;;;;5.00;2.72;;;;;;;;;;5029833;28;20151;-80
2022/09/10 04:17:33;;;;;;;5.65;2.65;;;;;;;;;;5043184;28;20815;-80
2022/09/10 04:20:02;;;;;;;8.43;2.85;;;;;;;;;;5047940;28;20060;-80
2022/09/10 04:22:29;;;;;;;6.90;2.60;;;;;;;;;;5028559;28;20080;-81
2022/09/10 04:24:59;;;;;;;4.50;2.40;;;;;;;;;;5030341;28;20127;-80
2022/09/10 04:27:32;;;;;;;4.95;2.72;;;;;;;;;;5011281;28;20057;-80
2022/09/10 04:29:59;;;;;;;4.93;2.50;;;;;;;;;;5022127;28;20124;-80
2022/09/10 04:32:27;;;;;;;7.18;2.70;;;;;;;;;;5039782;28;20041;-80
2022/09/10 04:35:01;;;;;;;4.70;2.70;;;;;;;;;;5028425;28;20056;-80
2022/09/10 04:37:30;;;;;;;6.75;2.58;;;;;;;;;;5025956;28;20045;-80
2022/09/10 04:39:57;;;;;;;10.75;2.55;;;;;;;;;;5029379;28;20080;-80
2022/09/10 04:42:33;;;;;;;4.55;2.53;;;;;;;;;;5027039;28;20055;-80
2022/09/10 04:45:01;;;;;;;4.47;2.67;;;;;;;;;;5013125;28;20049;-79
2022/09/10 04:47:29;;;;;;;5.72;2.70;;;;;;;;;;5028159;28;20045;-79
2022/09/10 04:50:23;;;;;;;6.68;2.75;;;;;;;;;;5044231;28;20485;-79
2022/09/10 04:53:13;;;;;;;13.65;3.03;;;;;;;;;;5028886;28;20083;-80
2022/09/10 04:55:45;;;;;;;5.22;2.72;;;;;;;;;;5025289;28;20565;-81
2022/09/10 04:58:13;;;;;;;8.88;3.25;;;;;;;;;;5012840;28;20045;-80
2022/09/10 05:01:05;;;;;;;5.72;2.95;;;;;;;;;;5045204;28;20045;-81
2022/09/10 05:04:03;;;;;;;6.22;2.97;;;;;;;;;;5028384;28;20140;-80
2022/09/10 05:06:33;;;;;;;8.25;2.67;;;;;;;;;;5030413;28;20061;-80
2022/09/10 05:09:03;;;;;;;8.20;2.80;;;;;;;;;;5013831;28;20136;-80
2022/09/10 05:11:31;;;;;;;4.63;2.90;;;;;;;;;;5027187;28;20124;-80
2022/09/10 05:14:24;;;;;;;5.60;2.70;;;;;;;;;;5024160;28;20049;-80
2022/09/10 05:16:51;;;;;;;4.10;2.70;;;;;;;;;;5013444;28;20059;-79
2022/09/10 05:19:19;;;;;;;5.15;3.03;;;;;;;;;;5041752;28;20095;-80
2022/09/10 05:21:51;;;;;;;7.70;2.60;;;;;;;;;;5028674;28;20128;-79
2022/09/10 05:24:20;;;;;;;4.97;3.17;;;;;;;;;;5045296;28;20056;-79
2022/09/10 05:26:53;;;;;;;5.93;2.90;;;;;;;;;;5028570;28;20067;-80
2022/09/10 05:29:21;;;;;;;9.63;3.00;;;;;;;;;;5013441;28;20131;-80
2022/09/10 05:32:15;;;;;;;5.80;2.85;;;;;;;;;;5045157;28;20037;-80
2022/09/10 05:34:47;;;;;;;4.32;3.17;;;;;;;;;;5031507;28;20422;-80
2022/09/10 05:37:15;;;;;;;4.78;2.90;;;;;;;;;;5025305;28;20079;-80
2022/09/10 05:39:54;;;;;;;5.55;2.90;;;;;;;;;;5026162;28;20045;-80
2022/09/10 05:42:21;;;;;;;6.55;2.97;;;;;;;;;;5025438;28;20048;-80
2022/09/10 05:44:49;;;;;;;4.55;3.22;;;;;;;;;;5028629;28;20071;-80
2022/09/10 05:47:17;;;;;;;5.93;3.15;;;;;;;;;;5012689;28;20100;-79
2022/09/10 05:49:50;;;;;;;6.05;3.13;;;;;;;;;;5028270;28;20127;-79
2022/09/10 05:52:19;;;;;;;4.88;3.13;;;;;;;;;;5023713;28;20052;-79
2022/09/10 05:54:47;;;;;;;7.53;3.42;;;;;;;;;;5025242;28;20099;-79
2022/09/10 05:57:25;;;;;;;4.95;3.15;;;;;;;;;;5044715;28;20053;-79
2022/09/10 05:59:53;;;;;;;4.85;3.38;;;;;;;;;;5043891;28;20057;-79
2022/09/10 06:02:21;;;;;;;6.45;3.17;;;;;;;;;;5027762;28;20076;-79
2022/09/10 06:05:20;;;;;;;5.10;3.08;;;;;;;;;;5024263;28;20073;-80
2022/09/10 06:07:48;;;;;;;6.80;3.35;;;;;;;;;;5025922;28;20171;-80
2022/09/10 06:10:21;;;;;;;7.03;4.00;;;;;;;;;;5025184;28;20098;-79
2022/09/10 06:13:00;;;;;;;8.75;4.22;;;;;;;;;;5039512;28;20041;-80
2022/09/10 06:15:32;;;;;;;8.05;4.20;;;;;;;;;;5027968;28;20049;-80
2022/09/10 06:18:27;;;;;;;7.20;3.53;;;;;;;;;;5039420;28;20033;-80
2022/09/10 06:21:28;;;;;;;7.32;4.43;;;;;;;;;;5024092;28;20076;-80
2022/09/10 06:23:57;;;;;;;9.60;4.07;;;;;;;;;;5022762;28;20065;-80
2022/09/10 06:26:33;;;;;;;5.00;3.70;;;;;;;;;;5027266;28;20135;-80
2022/09/10 06:29:05;;;;;;;4.80;3.58;;;;;;;;;;5026348;28;20183;-79
2022/09/10 06:31:33;;;;;;;6.10;3.92;;;;;;;;;;5027790;28;20048;-79
2022/09/10 06:34:03;;;;;;;6.38;3.50;;;;;;;;;;5026743;28;20494;-79
2022/09/10 06:36:32;;;;;;;5.30;3.60;;;;;;;;;;5025839;28;20136;-80
2022/09/10 06:39:27;;;;;;;6.28;4.30;;;;;;;;;;5028623;28;20041;-79
2022/09/10 06:42:24;;;;;;;6.80;3.85;;;;;;;;;;5025615;28;20045;-80
2022/09/10 06:45:05;;;;;;;7.22;4.13;;;;;;;;;;5026763;28;20055;-79
2022/09/10 06:48:03;;;;;;;6.60;3.47;;;;;;;;;;5032753;28;20511;-80
2022/09/10 06:50:57;;;;;;;7.32;4.18;;;;;;;;;;5027818;28;20458;-80
2022/09/10 06:53:34;;;;;;;7.90;3.90;;;;;;;;;;5014794;28;20051;-79
2022/09/10 06:56:27;;;;;;;9.10;4.30;;;;;;;;;;5016281;28;20059;-80
2022/09/10 06:58:58;;;;;;;7.43;4.65;;;;;;;;;;5029049;28;20511;-80
2022/09/10 07:01:54;;;;;;;6.78;3.80;;;;;;;;;;5048114;28;20117;-79
2022/09/10 07:04:21;;;;;;;8.63;4.10;;;;;;;;;;5042411;28;20110;-80
2022/09/10 07:06:50;;;;;;;8.32;4.07;;;;;;;;;;5027232;28;20045;-80
2022/09/10 07:09:17;;;;;;;10.70;4.50;;;;;;;;;;5026364;28;20053;-82
2022/09/10 07:11:51;;;;;;;6.97;4.13;;;;;;;;;;5028307;28;20457;-80
2022/09/10 07:14:45;;;;;;;8.13;3.92;;;;;;;;;;5048591;28;20044;-80
2022/09/10 07:17:44;;;;;;;9.25;4.22;;;;;;;;;;5047391;28;20449;-80
2022/09/10 07:20:17;;;;;;;6.55;4.22;;;;;;;;;;5031645;28;20122;-80
2022/09/10 07:22:54;;;;;;;7.55;4.53;;;;;;;;;;5013078;28;20110;-80
2022/09/10 07:25:27;;;;;;;7.72;4.13;;;;;;;;;;5031315;28;20068;-79
2022/09/10 07:28:17;;;;;;;8.43;4.00;;;;;;;;;;5000196;28;20072;-80
2022/09/10 07:30:47;;;;;;;13.32;5.68;;;;;;;;;;4987229;28;20067;-80
2022/09/10 07:33:18;;;;;;;8.45;4.90;;;;;;;;;;5004429;28;20046;-80
2022/09/10 07:35:45;;;;;;;7.60;4.82;;;;;;;;;;5000164;28;20050;-80
2022/09/10 07:38:38;;;;;;;8.23;5.20;;;;;;;;;;5002547;28;20088;-80
2022/09/10 07:41:12;;;;;;;8.70;5.35;;;;;;;;;;5003783;28;20156;-80
2022/09/10 07:43:42;;;;;;;9.13;6.07;;;;;;;;;;5006377;28;20523;-80
2022/09/10 07:46:19;;;;;;;11.98;6.72;;;;;;;;;;4987235;28;20053;-80
2022/09/10 07:49:14;;;;;;;8.57;5.70;;;;;;;;;;4987741;28;20048;-80
2022/09/10 07:52:07;;;;;;;9.23;6.00;;;;;;;;;;5002885;28;20049;-80
2022/09/10 07:54:43;;;;;;;8.95;5.72;;;;;;;;;;4983511;28;20108;-80
2022/09/10 07:57:13;;;;;;;8.02;5.60;;;;;;;;;;5002638;28;20205;-81
2022/09/10 07:59:41;;;;;;;7.82;5.07;;;;;;;;;;5006612;28;20053;-82
2022/09/10 08:02:45;;;;;;;7.25;4.82;;;;;;;;;;5045072;28;20044;-81
2022/09/10 08:05:17;;;;;;;10.00;4.85;;;;;;;;;;5017035;28;20468;-82
2022/09/10 08:07:45;;;;;;;9.13;5.18;;;;;;;;;;5013085;28;20045;-82
2022/09/10 08:10:17;;;;;;;9.98;6.20;;;;;;;;;;5014209;28;20049;-82
2022/09/10 08:12:51;;;;;;;12.07;6.95;;;;;;;;;;5027876;28;20047;-82
2022/09/10 08:15:19;;;;;;;11.82;6.90;;;;;;;;;;5021578;28;20064;-81
2022/09/10 08:17:47;;;;;;;11.75;5.95;;;;;;;;;;5027626;28;20132;-81
2022/09/10 08:20:40;;;;;;;10.45;5.80;;;;;;;;;;5013493;28;20057;-82
2022/09/10 08:23:13;;;;;;;13.27;5.88;;;;;;;;;;5045337;28;20047;-82
2022/09/10 08:25:50;;;;;;;9.52;5.40;;;;;;;;;;5029944;28;20522;-83
2022/09/10 08:28:22;;;;;;;9.93;5.47;;;;;;;;;;5028668;28;20053;-82
2022/09/10 08:31:06;;;;;;;10.65;6.32;;;;;;;;;;5024550;28;20139;-82
2022/09/10 08:33:39;;;;;;;9.20;5.85;;;;;;;;;;5030949;28;20503;-82
2022/09/10 08:36:10;;;;;;;12.15;6.75;;;;;;;;;;5028184;28;20067;-82
2022/09/10 08:38:40;;;;;;;12.82;6.43;;;;;;;;;;5041654;28;20045;-82
2022/09/10 08:41:37;;;;;;;11.07;5.97;;;;;;;;;;5033512;28;20064;-82
2022/09/10 08:44:09;;;;;;;10.70;5.90;;;;;;;;;;5015327;28;20092;-82
2022/09/10 08:46:54;;;;;;;11.77;7.05;;;;;;;;;;5027908;28;20049;-82
2022/09/10 08:49:36;;;;;;;10.93;7.30;;;;;;;;;;5039835;28;20060;-82
2022/09/10 08:52:26;;;;;;;11.40;7.68;;;;;;;;;;5048195;28;20504;-82
2022/09/10 08:55:14;;;;;;;13.20;7.63;;;;;;;;;;5030690;28;20041;-81
2022/09/10 08:57:58;;;;;;;12.82;7.75;;;;;;;;;;5043491;28;20064;-82
2022/09/10 09:00:38;;;;;;;12.98;8.00;;;;;;;;;;5045224;28;20071;-82
2022/09/10 09:03:48;;;;;;;13.55;8.55;;;;;;;;;;5011297;28;20045;-82
2022/09/10 09:06:43;;;;;;;12.90;9.20;;;;;;;;;;5048897;28;20053;-82
2022/09/10 09:09:15;;;;;;;11.02;7.82;;;;;;;;;;5022351;28;20472;-82
2022/09/10 09:12:01;;;;;;;11.35;8.68;;;;;;;;;;5029371;28;20053;-82
2022/09/10 09:14:47;;;;;;;11.00;8.02;;;;;;;;;;5026650;28;20040;-82
2022/09/10 09:17:23;;;;;;;14.07;9.20;;;;;;;;;;5026372;28;20587;-82
2022/09/10 09:19:54;;;;;;;13.63;9.52;;;;;;;;;;5046118;28;20506;-81
2022/09/10 09:22:35;;;;;;;13.80;8.95;;;;;;;;;;5010983;28;20049;-82
2022/09/10 09:25:30;;;;;;;14.07;8.68;;;;;;;;;;5011338;28;20047;-82
2022/09/10 09:28:27;;;;;;;14.23;9.13;;;;;;;;;;4998321;28;20053;-82
2022/09/10 09:31:25;;;;;;;13.23;9.23;;;;;;;;;;5045972;28;20131;-81
2022/09/10 09:34:06;;;;;;;12.32;9.10;;;;;;;;;;5040525;28;20429;-81
2022/09/10 09:36:41;;;;;;;13.85;9.63;;;;;;;;;;5025889;28;20655;-81
2022/09/10 09:39:25;;;;;;;12.35;8.98;;;;;;;;;;5011627;28;20052;-82
2022/09/10 09:42:03;;;;;;;14.10;9.88;;;;;;;;;;5029223;28;20533;-84
2022/09/10 09:44:48;;;;;;;16.00;9.63;;;;;;;;;;5032817;28;20056;-83
2022/09/10 09:47:29;;;;;;;12.40;9.18;;;;;;;;;;5026458;28;20057;-83
2022/09/10 09:49:58;;;;;;;13.18;9.27;;;;;;;;;;5012117;28;20143;-83
2022/09/10 09:52:55;;;;;;;12.23;8.82;;;;;;;;;;5038084;28;20052;-83
2022/09/10 09:56:06;;;;;;;12.23;8.90;;;;;;;;;;5045153;28;20049;-83
2022/09/10 09:58:45;;;;;;;14.30;8.98;;;;;;;;;;5028939;28;20384;-83
2022/09/10 10:01:27;;;;;;;12.70;9.52;;;;;;;;;;5027482;28;20068;-82
2022/09/10 10:04:35;;;;;;;13.85;9.55;;;;;;;;;;5026113;28;20179;-83
2022/09/10 10:07:31;;;;;;;15.65;9.55;;;;;;;;;;5017080;28;20154;-83
2022/09/10 10:10:26;;;;;;;13.10;9.73;;;;;;;;;;5014891;28;20060;-83
2022/09/10 10:13:19;;;;;;;12.80;9.32;;;;;;;;;;5031303;28;20053;-83
2022/09/10 10:16:25;;;;;;;11.88;9.43;;;;;;;;;;5030284;28;20060;-83
2022/09/10 10:19:35;;;;;;;13.55;9.82;;;;;;;;;;5017369;28;20514;-82
2022/09/10 10:22:30;;;;;;;12.60;8.93;;;;;;;;;;5048271;28;20523;-81
2022/09/10 10:25:00;;;;;;;;;;;;;;;;;;5023588;28;20136;-82
2022/09/10 10:27:44;;;;;;;11.40;8.32;;;;;;;;;;5047460;28;19932;-82
2022/09/10 10:30:17;;;;;;;12.43;9.02;;;;;;;;;;5027417;28;20049;-82
2022/09/10 10:33:16;;;;;;;12.48;8.60;;;;;;;;;;5045533;28;20045;-82
2022/09/10 10:36:17;;;;;;;11.60;8.40;;;;;;;;;;5029688;28;20056;-82
2022/09/10 10:38:50;;;;;;;;;;;;;;;;;;5048062;28;20048;-82
2022/09/10 10:41:40;;;;;;;11.43;8.20;;;;;;;;;;5044009;28;19924;-82
2022/09/10 10:44:26;;;;;;;11.45;8.38;;;;;;;;;;5024386;28;20141;-82
2022/09/10 10:47:31;;;;;;;10.65;7.97;;;;;;;;;;5045655;28;20049;-82
2022/09/10 10:50:46;;;;;;;16.67;8.13;;;;;;;;;;5046037;28;20124;-82
2022/09/10 10:53:38;;;;;;;;;;;;;;;;;;5040481;28;20087;-82
2022/09/10 10:56:18;;;;;;;11.25;7.53;;;;;;;;;;5030616;28;19925;-82
2022/09/10 10:58:54;;;;;;;11.57;8.50;;;;;;;;;;5047371;28;20084;-82
2022/09/10 11:01:25;;;;;;;12.65;7.80;;;;;;;;;;5021591;28;20052;-83
2022/09/10 11:04:21;;;;;;;9.80;7.28;;;;;;;;;;5045802;28;20048;-82
2022/09/10 11:07:24;;;;;;;13.45;6.50;;;;;;;;;;5035195;28;20041;-82
2022/09/10 11:10:02;;;;;;;12.43;8.32;;;;;;;;;;5030714;28;20045;-82
2022/09/10 11:12:42;;;;;;;10.60;7.57;;;;;;;;;;5045977;28;20052;-82
2022/09/10 11:15:18;;;;;;;10.57;7.50;;;;;;;;;;5026182;28;20049;-82
2022/09/10 11:17:52;;;;;;;10.45;6.88;;;;;;;;;;5045698;28;20053;-82
2022/09/10 11:21:13;;;;;;;12.15;7.95;;;;;;;;;;5046783;28;20063;-81
2022/09/10 11:24:47;;;;;;;11.50;7.60;;;;;;;;;;5033769;28;20041;-82
2022/09/10 11:27:48;;;;;;;11.50;6.57;;;;;;;;;;4954680;28;20055;-82
2022/09/10 11:30:21;;;;;;;11.48;7.07;;;;;;;;;;4954382;28;20058;-82
2022/09/10 11:33:10;;;;;;;8.50;6.68;;;;;;;;;;4958542;28;20046;-82
2022/09/10 11:35:47;;;;;;;12.95;6.80;;;;;;;;;;4953795;28;20564;-82
2022/09/10 11:38:26;;;;;;;7.72;6.07;;;;;;;;;;4958471;28;20101;-83
2022/09/10 11:41:28;;;;;;;10.30;6.63;;;;;;;;;;4957088;28;20193;-83
2022/09/10 11:44:46;;;;;;;9.50;7.00;;;;;;;;;;4959761;28;20062;-83
2022/09/10 11:47:22;;;;;;;8.57;6.75;;;;;;;;;;4942260;28;20141;-83
2022/09/10 11:50:36;;;;;;;12.55;6.55;;;;;;;;;;4959984;28;20047;-85
2022/09/10 11:55:13;;;;;;;10.07;5.68;;;;;;;;;;4957963;28;20082;-84
2022/09/10 11:58:46;;;;;;;8.25;5.28;;;;;;;;;;4960542;28;20058;-84
2022/09/10 12:03:22;;;;;;;8.88;5.15;;;;;;;;;;4988362;28;20120;-84
2022/09/10 12:07:14;;;;;;;12.35;6.22;;;;;;;;;;5047515;28;20049;-82
2022/09/10 12:10:09;;;;;;;7.70;5.55;;;;;;;;;;5044988;28;20053;-82
2022/09/10 12:12:52;;;;;;;10.88;6.25;;;;;;;;;;5032124;28;20576;-82
2022/09/10 12:15:20;;;;;;;12.45;8.15;;;;;;;;;;5042244;28;20718;-82
2022/09/10 12:18:23;;;;;;;10.98;6.95;;;;;;;;;;5050321;28;20131;-82
2022/09/10 12:20:58;;;;;;;11.50;7.60;;;;;;;;;;5027577;28;20891;-82
2022/09/10 12:23:29;;;;;;;10.90;7.55;;;;;;;;;;5046826;28;20656;-82
2022/09/10 12:26:02;;;;;;;8.45;6.55;;;;;;;;;;5047379;28;20083;-83
2022/09/10 12:28:40;;;;;;;9.60;7.22;;;;;;;;;;5049863;28;20060;-81
2022/09/10 12:31:14;;;;;;;11.38;7.35;;;;;;;;;;5048446;28;20386;-82
2022/09/10 12:33:41;;;;;;;10.05;6.28;;;;;;;;;;5047378;28;20099;-81
2022/09/10 12:36:33;;;;;;;10.57;6.45;;;;;;;;;;5046813;28;20061;-81
2022/09/10 12:39:26;;;;;;;8.30;5.75;;;;;;;;;;5047868;28;20079;-81
2022/09/10 12:42:02;;;;;;;11.13;6.50;;;;;;;;;;5032614;28;20091;-82
2022/09/10 12:44:32;;;;;;;8.98;6.07;;;;;;;;;;5031197;28;20060;-82
2022/09/10 12:47:14;;;;;;;8.40;6.53;;;;;;;;;;5048421;28;20048;-82
2022/09/10 12:49:53;;;;;;;7.85;5.30;;;;;;;;;;5048737;28;20694;-82
2022/09/10 12:52:43;;;;;;;10.63;6.63;;;;;;;;;;5048992;28;20056;-82
2022/09/10 12:55:38;;;;;;;8.85;6.03;;;;;;;;;;5030385;28;20049;-82
2022/09/10 12:58:34;;;;;;;7.28;5.75;;;;;;;;;;5045970;28;20056;-82
2022/09/10 13:01:38;;;;;;;7.93;5.85;;;;;;;;;;5046959;28;20684;-82
2022/09/10 13:04:20;;;;;;;7.32;6.03;;;;;;;;;;5020492;28;20053;-82
2022/09/10 13:07:23;;;;;;;7.35;5.25;;;;;;;;;;5045482;28;20045;-81
2022/09/10 13:10:13;;;;;;;7.10;4.70;;;;;;;;;;5024962;28;20064;-82
2022/09/10 13:12:55;;;;;;;5.95;4.72;;;;;;;;;;5047159;28;20045;-83
2022/09/10 13:15:36;;;;;;;8.85;5.47;;;;;;;;;;5037445;28;20049;-82
2022/09/10 13:18:35;;;;;;;8.13;4.82;;;;;;;;;;5033738;28;20071;-82
2022/09/10 13:21:21;;;;;;;7.90;5.20;;;;;;;;;;5045690;28;20550;-82
2022/09/10 13:23:56;;;;;;;5.95;4.65;;;;;;;;;;5029364;28;20450;-82
2022/09/10 13:26:38;;;;;;;5.65;4.70;;;;;;;;;;5030733;28;20477;-83
2022/09/10 13:29:25;;;;;;;7.80;5.05;;;;;;;;;;5029518;28;20136;-82
2022/09/10 13:35:16;;;;;;;7.38;5.30;;;;;;;;;;5048883;28;20126;-82
2022/09/10 13:38:15;;;;;;;7.10;4.65;;;;;;;;;;5023971;28;20041;-84
2022/09/10 13:41:36;;;;;;;6.70;4.63;;;;;;;;;;5044385;28;20045;-83
2022/09/10 13:44:49;;;;;;;6.03;5.03;;;;;;;;;;5034752;28;20044;-83
2022/09/10 13:47:46;;;;;;;7.28;4.90;;;;;;;;;;5016435;28;20549;-83
2022/09/10 13:50:24;;;;;;;6.47;4.32;;;;;;;;;;5031213;28;20040;-84
2022/09/10 13:52:57;;;;;;;7.97;4.80;;;;;;;;;;5027358;28;20076;-84
2022/09/10 13:55:32;;;;;;;9.00;5.40;;;;;;;;;;5027729;28;20159;-82
2022/09/10 13:58:13;;;;;;;7.50;4.70;;;;;;;;;;5044614;28;20518;-82
2022/09/10 14:00:51;;;;;;;6.72;4.60;;;;;;;;;;5023652;28;20045;-82
2022/09/10 14:03:46;;;;;;;10.25;4.40;;;;;;;;;;5043332;28;20055;-82
2022/09/10 14:42:40;;;;;;;7.03;4.55;;;;;;;;;;5084852;28;20501;-96
2022/09/10 14:46:08;;;;;;;5.85;4.55;;;;;;;;;;5053182;28;20059;-96
2022/09/10 14:49:45;;;;;;;6.78;4.20;;;;;;;;;;5000010;28;20042;-97
2022/09/10 14:52:50;;;;;;;5.93;3.72;;;;;;;;;;4959795;28;20078;-96
2022/09/10 15:00:58;;;;;;;7.68;3.90;;;;;;;;;;4954783;29;20043;-96
2022/09/10 15:03:39;;;;;;;5.80;4.05;;;;;;;;;;4857475;29;20057;-96
2022/09/10 15:07:18;;;;;;;6.10;3.53;;;;;;;;;;4840488;29;20034;-96
2022/09/10 16:20:18;;;;;;;9.32;4.75;;;;;;;;;;4990272;28;19972;-82
2022/09/10 16:22:47;;;;;;;7.10;4.78;;;;;;;;;;4977272;28;20041;-82
2022/09/10 16:25:15;;;;;;;6.28;4.85;;;;;;;;;;4993252;28;20046;-82
2022/09/10 16:27:44;;;;;;;6.40;4.95;;;;;;;;;;4997325;28;20037;-81
2022/09/10 16:30:17;;;;;;;8.40;5.05;;;;;;;;;;4979815;28;20079;-82
2022/09/10 16:32:45;;;;;;;10.52;5.15;;;;;;;;;;4979547;28;20514;-82
2022/09/10 16:35:13;;;;;;;8.43;4.97;;;;;;;;;;4947199;28;20136;-82
2022/09/10 16:37:45;;;;;;;7.18;5.15;;;;;;;;;;4958516;28;20046;-83
2022/09/10 16:40:18;;;;;;;7.18;5.10;;;;;;;;;;4973742;28;20045;-83
2022/09/10 16:43:03;;;;;;;6.60;4.68;;;;;;;;;;4995078;28;20495;-83
2022/09/10 16:45:49;;;;;;;8.00;4.85;;;;;;;;;;4928316;28;20397;-83
2022/09/10 16:48:36;;;;;;;8.15;4.22;;;;;;;;;;4959677;28;20072;-83
2022/09/10 16:51:19;;;;;;;6.22;4.30;;;;;;;;;;4968412;28;20038;-83
2022/09/10 16:54:14;;;;;;;5.53;4.00;;;;;;;;;;4986021;28;20037;-83
2022/09/10 16:58:16;;;;;;;6.97;4.20;;;;;;;;;;4928221;28;20303;-83
2022/09/10 17:02:45;;;;;;;6.78;4.47;;;;;;;;;;4923814;28;20106;-83
2022/09/10 17:05:50;;;;;;;6.72;4.35;;;;;;;;;;4923478;29;20521;-83
2022/09/10 17:09:08;;;;;;;6.50;4.25;;;;;;;;;;4923328;29;20142;-83
2022/09/10 17:11:50;;;;;;;6.03;4.40;;;;;;;;;;4924062;29;20036;-83
2022/09/10 17:14:38;;;;;;;11.20;4.70;;;;;;;;;;4908249;29;20314;-84
2022/09/10 17:17:19;;;;;;;7.45;4.70;;;;;;;;;;4937348;28;21814;-83
2022/09/10 17:20:24;;;;;;;6.88;4.40;;;;;;;;;;4920064;29;20525;-85
2022/09/10 17:23:54;;;;;;;7.00;4.10;;;;;;;;;;5073105;27;20421;-84
2022/09/10 17:26:25;;;;;;;9.50;4.30;;;;;;;;;;5051667;28;20044;-85
2022/09/10 17:29:19;;;;;;;6.55;5.10;;;;;;;;;;5045041;28;20048;-82
2022/09/10 17:32:27;;;;;;;7.38;5.20;;;;;;;;;;5061092;28;20101;-82
2022/09/10 17:35:19;;;;;;;9.00;5.55;;;;;;;;;;5061848;28;20413;-82
2022/09/10 17:38:05;;;;;;;9.43;4.50;;;;;;;;;;5056067;28;20584;-82
2022/09/10 17:40:33;;;;;;;5.05;4.15;;;;;;;;;;5066775;28;20048;-85
2022/09/10 17:43:01;;;;;;;8.85;4.90;;;;;;;;;;5067620;28;20033;-84
2022/09/10 17:45:35;;;;;;;6.18;4.75;;;;;;;;;;5082545;28;20045;-84
2022/09/10 17:48:03;;;;;;;6.28;4.90;;;;;;;;;;5063849;28;20048;-84
2022/09/10 17:50:31;;;;;;;8.05;5.68;;;;;;;;;;5068942;28;20040;-84
2022/09/10 17:52:59;;;;;;;6.57;4.65;;;;;;;;;;5066048;28;20028;-84
2022/09/10 17:55:27;;;;;;;13.63;7.38;;;;;;;;;;5063552;28;20040;-84
2022/09/10 17:57:59;;;;;;;8.07;5.32;;;;;;;;;;5080944;28;20045;-84
2022/09/10 18:00:32;;;;;;;12.68;7.25;;;;;;;;;;5062915;28;20059;-84
2022/09/10 18:02:59;;;;;;;12.05;6.63;;;;;;;;;;5063571;28;20089;-84
2022/09/10 18:05:27;;;;;;;15.82;9.13;;;;;;;;;;5076133;28;20544;-85
2022/09/10 18:08:19;;;;;;;11.48;7.53;;;;;;;;;;5075791;28;20033;-85